createdAt,value
2023-02-08T00:03:48.582Z,103298.19
2023-02-08T00:07:50.561Z,103304.13
2023-02-08T00:11:52.610Z,103306.81
2023-02-08T00:15:55.249Z,103315.56
2023-02-08T00:19:57.270Z,103326.81
2023-02-08T00:23:59.352Z,103326.19
2023-02-08T00:28:03.882Z,103310.88
2023-02-08T00:32:06.229Z,103324.41
2023-02-08T00:36:09.144Z,103325.88
2023-02-08T00:40:11.931Z,103334.78
2023-02-08T00:44:13.828Z,103326.31
2023-02-08T00:48:15.737Z,103329.63
2023-02-08T00:52:19.973Z,103341.59
2023-02-08T00:56:22.009Z,103335.06
2023-02-08T01:00:24.004Z,103335.84
2023-02-08T01:04:26.519Z,103341.19
2023-02-08T01:08:28.589Z,103342.81
2023-02-08T01:12:31.115Z,103348.84
2023-02-08T01:16:35.013Z,103341.13
2023-02-08T01:20:37.795Z,103342.00
2023-02-08T01:24:40.094Z,103341.91
2023-02-08T01:28:42.198Z,103348.84
2023-02-08T01:32:43.915Z,103346.34
2023-02-08T01:36:45.909Z,103341.97
2023-02-08T01:40:48.389Z,103338.50
2023-02-08T01:45:15.349Z,103340.81
2023-02-08T01:49:25.194Z,103341.72
2023-02-08T01:53:29.346Z,103324.53
2023-02-08T01:57:31.624Z,103320.59
2023-02-08T02:01:34.263Z,103329.16
2023-02-08T02:05:41.423Z,103334.31
2023-02-08T02:10:22.855Z,103337.69
2023-02-08T02:14:24.923Z,103347.75
2023-02-08T02:18:30.529Z,103348.22
2023-02-08T02:22:32.502Z,103353.31
2023-02-08T02:26:44.286Z,103345.94
2023-02-08T02:31:01.630Z,103354.56
2023-02-08T02:35:20.113Z,103359.34
2023-02-08T02:39:57.406Z,103357.41
2023-02-08T02:44:00.914Z,103350.19
2023-02-08T02:48:13.700Z,103352.81
2023-02-08T02:52:23.866Z,103355.59
2023-02-08T02:56:32.065Z,103367.72
2023-02-08T03:00:34.256Z,103366.00
2023-02-08T03:04:39.178Z,103366.13
2023-02-08T03:09:04.639Z,103372.31
2023-02-08T03:13:31.236Z,103370.50
2023-02-08T03:17:44.998Z,103374.38
2023-02-08T03:21:54.904Z,103381.28
2023-02-08T03:26:20.576Z,103388.13
2023-02-08T03:30:46.764Z,103389.47
2023-02-08T03:34:51.548Z,103391.03
2023-02-08T03:38:54.672Z,103385.91
2023-02-08T03:43:01.156Z,103385.81
2023-02-08T03:47:12.377Z,103389.56
2023-02-08T03:51:15.577Z,103396.88
2023-02-08T03:55:21.699Z,103402.50
2023-02-08T03:59:29.358Z,103393.28
2023-02-08T04:03:33.979Z,103396.88
2023-02-08T04:07:35.964Z,103404.34
2023-02-08T04:11:37.631Z,103390.34
2023-02-08T04:15:40.160Z,103383.41
2023-02-08T04:19:42.409Z,103390.34
2023-02-08T04:23:44.340Z,103392.75
2023-02-08T04:27:46.445Z,103385.50
2023-02-08T04:31:48.587Z,103385.03
2023-02-08T04:35:50.589Z,103377.34
2023-02-08T04:39:52.709Z,103381.88
2023-02-08T04:43:54.630Z,103384.75
2023-02-08T04:47:58.341Z,103392.47
2023-02-08T04:52:01.086Z,103399.38
2023-02-08T04:56:03.119Z,103394.19
2023-02-08T05:00:06.391Z,103404.53
2023-02-08T05:04:08.506Z,103396.13
2023-02-08T05:08:10.430Z,103400.38
2023-02-08T05:12:12.476Z,103408.22
2023-02-08T05:16:14.487Z,103416.06
2023-02-08T05:20:16.573Z,103424.69
2023-02-08T05:24:18.695Z,103447.63
2023-02-08T05:28:23.653Z,103455.53
2023-02-08T05:32:26.019Z,103452.28
2023-02-08T05:36:28.355Z,103461.56
2023-02-08T05:40:31.623Z,103463.41
2023-02-08T05:44:33.673Z,103466.41
2023-02-08T05:48:35.671Z,103464.56
2023-02-08T05:52:37.658Z,103464.44
2023-02-08T05:56:39.600Z,103466.41
2023-02-08T06:00:42.002Z,103482.00
2023-02-08T06:04:44.230Z,103486.41
2023-02-08T06:08:46.607Z,103493.41
2023-02-08T06:12:48.726Z,103498.69
2023-02-08T06:16:50.744Z,103502.34
2023-02-08T06:20:54.211Z,103500.00
2023-02-08T06:24:56.207Z,103505.84
2023-02-08T06:28:59.181Z,103503.44
2023-02-08T06:33:01.141Z,103500.47
2023-02-08T06:37:05.494Z,103503.31
2023-02-08T06:41:07.873Z,103509.78
2023-02-08T06:45:12.065Z,103510.28
2023-02-08T06:49:15.670Z,103512.41
2023-02-08T06:53:17.627Z,103511.84
2023-02-08T06:57:19.763Z,103526.06
2023-02-08T07:01:21.733Z,103528.69
2023-02-08T07:05:23.750Z,103540.00
2023-02-08T07:09:25.715Z,103550.84
2023-02-08T07:13:27.849Z,103568.09
2023-02-08T07:17:29.847Z,103571.47
2023-02-08T07:21:31.855Z,103578.53
2023-02-08T07:25:34.034Z,103575.25
2023-02-08T07:29:36.674Z,103567.22
2023-02-08T07:33:39.581Z,103561.09
2023-02-08T07:37:41.753Z,103561.56
2023-02-08T07:41:43.685Z,103555.44
2023-02-08T07:45:45.719Z,103567.06
2023-02-08T07:49:47.745Z,103570.13
2023-02-08T07:53:50.569Z,103565.38
2023-02-08T07:57:52.182Z,103577.50
2023-02-08T08:01:54.215Z,103589.00
2023-02-08T08:05:56.242Z,103586.69
2023-02-08T08:09:58.371Z,103594.63
2023-02-08T08:14:00.468Z,103591.22
2023-02-08T08:18:02.468Z,103603.81
2023-02-08T08:22:04.518Z,103596.69
2023-02-08T08:26:08.810Z,103601.06
2023-02-08T08:30:13.949Z,103598.28
2023-02-08T08:34:15.937Z,103603.91
2023-02-08T08:38:17.895Z,103593.84
2023-02-08T08:42:20.898Z,103601.75
2023-02-08T08:46:22.947Z,103615.38
2023-02-08T08:50:25.214Z,103615.41
2023-02-08T08:54:27.214Z,103610.78
2023-02-08T08:58:29.717Z,103615.22
2023-02-08T09:02:31.862Z,103614.78
2023-02-08T09:07:04.714Z,103626.78
2023-02-08T09:11:16.748Z,103621.78
2023-02-08T09:15:27.105Z,103619.41
2023-02-08T09:19:32.471Z,103622.50
2023-02-08T09:23:38.619Z,103624.69
2023-02-08T09:27:43.253Z,103633.50
2023-02-08T09:31:46.402Z,103630.47
2023-02-08T09:35:50.487Z,103636.69
2023-02-08T09:39:53.184Z,103640.22
2023-02-08T09:44:20.652Z,103640.03
2023-02-08T09:48:33.991Z,103636.91
2023-02-08T09:52:54.772Z,103638.13
2023-02-08T09:57:00.074Z,103639.38
2023-02-08T10:01:05.965Z,103638.69
2023-02-08T10:05:13.856Z,103642.72
2023-02-08T10:09:20.832Z,103640.91
2023-02-08T10:13:46.398Z,103642.91
2023-02-08T10:18:18.698Z,103647.09
2023-02-08T10:22:39.604Z,103644.75
2023-02-08T10:26:48.035Z,103645.19
2023-02-08T10:31:06.850Z,103640.63
2023-02-08T10:35:25.785Z,103650.78
2023-02-08T10:39:30.871Z,103646.47
2023-02-08T10:43:38.692Z,103643.53
2023-02-08T10:47:55.572Z,103629.84
2023-02-08T10:51:57.609Z,103631.31
2023-02-08T10:55:59.888Z,103632.53
2023-02-08T11:00:11.377Z,103630.00
2023-02-08T11:04:13.728Z,103620.81
2023-02-08T11:08:22.334Z,103618.16
2023-02-08T11:12:24.346Z,103620.69
2023-02-08T11:16:27.390Z,103618.66
2023-02-08T11:20:36.867Z,103622.19
2023-02-08T11:24:41.489Z,103625.97
2023-02-08T11:28:44.334Z,103622.09
2023-02-08T11:32:48.592Z,103618.47
2023-02-08T11:36:50.876Z,103621.41
2023-02-08T11:40:56.330Z,103619.72
2023-02-08T11:45:00.120Z,103624.38
2023-02-08T11:49:03.585Z,103623.31
2023-02-08T11:53:17.458Z,103620.78
2023-02-08T11:57:22.361Z,103612.09
2023-02-08T12:01:29.422Z,103612.34
2023-02-08T12:05:55.366Z,103612.41
2023-02-08T12:10:27.391Z,103623.84
2023-02-08T12:14:50.525Z,103619.44
2023-02-08T12:19:20.326Z,103613.53
2023-02-08T12:23:34.744Z,103616.03
2023-02-08T12:27:48.510Z,103616.75
2023-02-08T12:32:27.930Z,103615.31
2023-02-08T12:36:42.151Z,103606.63
2023-02-08T12:41:03.104Z,103601.13
2023-02-08T12:45:21.575Z,103592.91
2023-02-08T12:49:23.526Z,103602.06
2023-02-08T12:53:53.037Z,103594.75
2023-02-08T12:58:00.266Z,103586.72
2023-02-08T13:02:13.472Z,103572.50
2023-02-08T13:06:21.354Z,103570.06
2023-02-08T13:10:37.446Z,103570.53
2023-02-08T13:14:45.771Z,103570.00
2023-02-08T13:19:23.919Z,103574.88
2023-02-08T13:23:36.552Z,103562.34
2023-02-08T13:27:43.098Z,103563.50
2023-02-08T13:31:51.770Z,103557.63
2023-02-08T13:35:54.435Z,103557.69
2023-02-08T13:40:21.523Z,103552.47
2023-02-08T13:44:37.399Z,103545.28
2023-02-08T13:48:49.500Z,103544.94
2023-02-08T13:52:52.369Z,103546.91
2023-02-08T13:56:54.538Z,103545.03
2023-02-08T14:00:56.628Z,103559.81
2023-02-08T14:05:37.089Z,103553.88
2023-02-08T14:09:51.206Z,103548.41
2023-02-08T14:14:16.150Z,103551.31
2023-02-08T14:18:28.912Z,103550.13
2023-02-08T14:22:37.327Z,103552.72
2023-02-08T14:26:39.398Z,103545.13
2023-02-08T14:30:42.766Z,103546.50
2023-02-08T14:34:45.180Z,103545.84
2023-02-08T14:38:53.858Z,103544.31
2023-02-08T14:43:00.194Z,103537.31
2023-02-08T14:47:02.016Z,103542.13
2023-02-08T14:51:18.666Z,103544.75
2023-02-08T14:55:27.495Z,103554.59
2023-02-08T14:59:34.613Z,103545.91
2023-02-08T15:03:37.183Z,103545.06
2023-02-08T15:07:50.123Z,103549.56
2023-02-08T15:12:04.960Z,103551.97
2023-02-08T15:16:12.441Z,103545.84
2023-02-08T15:20:20.600Z,103545.69
2023-02-08T15:24:23.694Z,103547.75
2023-02-08T15:28:29.375Z,103551.44
2023-02-08T15:32:31.522Z,103541.19
2023-02-08T15:36:36.580Z,103539.28
2023-02-08T15:40:38.593Z,103529.66
2023-02-08T15:44:43.890Z,103522.84
2023-02-08T15:48:46.562Z,103521.00
2023-02-08T15:53:13.373Z,103520.44
2023-02-08T15:57:46.265Z,103506.00
2023-02-08T16:01:49.312Z,103509.84
2023-02-08T16:06:00.566Z,103504.03
2023-02-08T16:10:03.623Z,103503.63
2023-02-08T16:14:07.790Z,103497.25
2023-02-08T16:18:31.684Z,103496.44
2023-02-08T16:22:33.973Z,103494.97
2023-02-08T16:26:45.400Z,103494.72
2023-02-08T16:30:47.681Z,103500.94
2023-02-08T16:34:50.020Z,103495.47
2023-02-08T16:39:16.384Z,103490.66
2023-02-08T16:43:21.173Z,103483.09
2023-02-08T16:47:53.695Z,103467.06
2023-02-08T16:51:59.820Z,103473.25
2023-02-08T16:56:02.209Z,103467.16
2023-02-08T17:00:13.938Z,103457.91
2023-02-08T17:04:16.139Z,103453.41
2023-02-08T17:08:21.050Z,103456.59
2023-02-08T17:12:24.283Z,103446.78
2023-02-08T17:16:28.920Z,103432.25
2023-02-08T17:20:34.648Z,103421.19
2023-02-08T17:24:38.920Z,103427.94
2023-02-08T17:28:43.086Z,103423.91
2023-02-08T17:32:45.056Z,103420.09
2023-02-08T17:36:47.852Z,103431.84
2023-02-08T17:40:49.893Z,103428.03
2023-02-08T17:44:51.460Z,103428.19
2023-02-08T17:48:54.507Z,103433.97
2023-02-08T17:52:56.678Z,103437.75
2023-02-08T17:56:59.822Z,103442.38
2023-02-08T18:01:01.938Z,103427.28
2023-02-08T18:05:04.666Z,103420.66
2023-02-08T18:09:06.661Z,103413.22
2023-02-08T18:13:09.102Z,103420.72
2023-02-08T18:17:11.421Z,103429.97
2023-02-08T18:21:16.153Z,103414.34
2023-02-08T18:25:19.080Z,103407.22
2023-02-08T18:29:21.314Z,103412.03
2023-02-08T18:33:23.342Z,103399.34
2023-02-08T18:37:25.775Z,103406.53
2023-02-08T18:41:29.764Z,103402.56
2023-02-08T18:45:31.928Z,103398.25
2023-02-08T18:49:40.797Z,103411.03
2023-02-08T18:53:45.920Z,103406.75
2023-02-08T18:57:48.077Z,103403.47
2023-02-08T19:01:50.355Z,103416.63
2023-02-08T19:05:52.538Z,103416.16
2023-02-08T19:09:54.722Z,103410.25
2023-02-08T19:13:58.883Z,103394.63
2023-02-08T19:18:00.932Z,103389.50
2023-02-08T19:22:03.152Z,103391.38
2023-02-08T19:26:08.534Z,103381.25
2023-02-08T19:30:10.904Z,103379.91
2023-02-08T19:34:13.076Z,103377.84
2023-02-08T19:38:15.149Z,103370.16
2023-02-08T19:42:17.396Z,103358.38
2023-02-08T19:46:25.701Z,103353.25
2023-02-08T19:50:27.766Z,103346.75
2023-02-08T19:54:30.022Z,103342.59
2023-02-08T19:58:33.327Z,103350.22
2023-02-08T20:02:35.215Z,103357.84
2023-02-08T20:06:39.263Z,103361.25
2023-02-08T20:10:44.279Z,103355.00
2023-02-08T20:14:46.354Z,103353.66
2023-02-08T20:18:49.015Z,103355.75
2023-02-08T20:22:51.170Z,103354.06
2023-02-08T20:26:53.372Z,103353.47
2023-02-08T20:30:55.490Z,103353.47
2023-02-08T20:34:59.723Z,103343.81
2023-02-08T20:39:02.080Z,103332.13
2023-02-08T20:43:04.736Z,103330.50
2023-02-08T20:47:08.892Z,103332.66
2023-02-08T20:51:14.069Z,103327.22
2023-02-08T20:55:15.993Z,103338.44
2023-02-08T20:59:18.002Z,103339.13
2023-02-08T21:03:20.126Z,103339.56
2023-02-08T21:07:22.353Z,103341.16
2023-02-08T21:11:30.519Z,103330.66
2023-02-08T21:15:32.744Z,103321.88
2023-02-08T21:19:35.185Z,103323.25
2023-02-08T21:23:38.173Z,103319.22
2023-02-08T21:27:40.248Z,103327.53
2023-02-08T21:31:42.542Z,103318.16
2023-02-08T21:35:44.615Z,103335.56
2023-02-08T21:39:47.415Z,103330.44
2023-02-08T21:43:51.015Z,103324.75
2023-02-08T21:47:53.200Z,103314.50
2023-02-08T21:52:13.579Z,103310.91
2023-02-08T21:56:15.772Z,103312.97
2023-02-08T22:00:17.986Z,103319.91
2023-02-08T22:04:20.522Z,103313.34
2023-02-08T22:08:22.290Z,103309.44
2023-02-08T22:12:24.482Z,103300.50
2023-02-08T22:16:26.559Z,103289.94
2023-02-08T22:20:29.742Z,103269.63
2023-02-08T22:24:35.500Z,103264.25
2023-02-08T22:28:37.697Z,103253.94
2023-02-08T22:32:44.253Z,103247.53
2023-02-08T22:36:46.843Z,103250.09
2023-02-08T22:40:48.887Z,103234.25
2023-02-08T22:44:54.421Z,103223.75
2023-02-08T22:48:56.496Z,103219.59
2023-02-08T22:52:58.542Z,103215.13
2023-02-08T22:57:00.615Z,103208.22
2023-02-08T23:01:02.673Z,103209.69
2023-02-08T23:05:05.104Z,103210.25
2023-02-08T23:09:07.015Z,103206.81
2023-02-08T23:13:09.584Z,103199.69
2023-02-08T23:17:11.870Z,103193.38
2023-02-08T23:21:18.672Z,103190.16
2023-02-08T23:25:21.202Z,103188.94
2023-02-08T23:29:23.343Z,103198.28
2023-02-08T23:33:24.927Z,103187.19
2023-02-08T23:37:26.952Z,103184.22
2023-02-08T23:41:29.552Z,103188.41
2023-02-08T23:45:31.597Z,103188.88
2023-02-08T23:49:33.822Z,103182.16
2023-02-08T23:53:37.256Z,103188.78
2023-02-08T23:57:39.558Z,103189.03
